Time;durP1;ratioP1;P1;durP2;ratioP2;P2;SDS_P1;SDS_P2;PMS_P1;PMS_P2;Temp;Humidity;BMP_temperature;BMP_pressure;BME280_temperature;BME280_humidity;BME280_pressure;Samples;Min_cycle;Max_cycle;Signal;HPM_P1;HPM_P2
2022/03/17 05:13:08;;;;;;;44.10;23.05;;;;;;;0.72;96.12;101651.34;5561042;32;221528;-86
2022/03/17 05:16:11;;;;;;;40.22;23.87;;;;;;;0.75;95.34;101661.84;5549147;32;33478;-86
2022/03/17 05:19:14;;;;;;;41.10;23.58;;;;;;;0.70;95.66;101671.34;5549184;32;35096;-85
2022/03/17 05:22:17;;;;;;;42.00;22.77;;;;;;;0.70;95.98;101681.81;5553498;32;34715;-86
2022/03/17 05:25:20;;;;;;;41.58;22.50;;;;;;;0.83;95.68;101686.31;5557532;32;34337;-86
2022/03/17 05:28:23;;;;;;;38.03;21.10;;;;;;;1.02;94.34;101690.03;5551443;32;34017;-86
2022/03/17 05:31:26;;;;;;;37.25;22.25;;;;;;;1.19;93.11;101687.59;5548523;32;34687;-85
2022/03/17 05:34:29;;;;;;;38.72;22.62;;;;;;;1.41;91.48;101694.75;5548670;32;33788;-86
2022/03/17 05:37:41;;;;;;;;;;;;;;;1.31;91.89;101705.13;5550990;32;34293;-85
2022/03/17 05:40:44;;;;;;;38.33;21.77;;;;;;;1.47;91.12;101713.12;5558532;32;35167;-86
2022/03/17 05:43:46;;;;;;;36.85;21.62;;;;;;;1.45;90.86;101718.34;5554687;32;35601;-86
2022/03/17 05:46:49;;;;;;;36.97;21.33;;;;;;;1.54;89.79;101729.75;5554956;32;34249;-86
2022/03/17 05:49:53;;;;;;;33.60;21.58;;;;;;;1.69;87.33;101732.50;5548772;32;34175;-85
2022/03/17 05:52:56;;;;;;;36.15;21.55;;;;;;;1.82;85.69;101724.78;5541895;32;33996;-85
2022/03/17 05:55:59;;;;;;;37.28;22.02;;;;;;;1.99;84.76;101733.66;5547691;32;33878;-86
2022/03/17 05:59:02;;;;;;;35.88;21.65;;;;;;;2.22;82.70;101745.16;5550021;32;34720;-85
2022/03/17 06:02:05;;;;;;;36.70;21.48;;;;;;;2.37;81.82;101740.00;5548559;32;33804;-86
2022/03/17 06:05:19;;;;;;;37.40;21.90;;;;;;;2.54;81.16;101744.47;5538548;32;34331;-85
2022/03/17 06:08:22;;;;;;;36.10;23.23;;;;;;;2.76;80.66;101761.19;5539530;32;34225;-85
2022/03/17 06:11:25;;;;;;;36.67;21.75;;;;;;;3.06;79.22;101758.69;5547418;32;34202;-85
2022/03/17 06:14:28;;;;;;;33.45;22.15;;;;;;;3.25;77.26;101764.88;5555472;32;34503;-85
2022/03/17 06:17:47;;;;;;;34.80;21.48;;;;;;;3.66;76.34;101767.62;5564589;32;34632;-85
2022/03/17 06:20:50;;;;;;;34.67;20.95;;;;;;;4.80;71.52;101771.91;5567969;32;33953;-85
2022/03/17 06:23:53;;;;;;;33.50;20.50;;;;;;;6.12;64.87;101772.03;5556922;32;35954;-85
2022/03/17 06:26:55;;;;;;;34.72;21.00;;;;;;;7.20;60.93;101759.41;5554699;32;33851;-89
2022/03/17 06:29:58;;;;;;;33.17;21.45;;;;;;;7.69;57.45;101768.44;5555145;32;34300;-90
2022/03/17 06:33:02;;;;;;;36.53;22.40;;;;;;;8.85;53.47;101780.53;5555894;32;33786;-90
2022/03/17 06:36:05;;;;;;;32.58;20.95;;;;;;;8.76;54.79;101776.31;5568299;32;33985;-89
2022/03/17 06:39:08;;;;;;;37.13;22.60;;;;;;;7.99;54.24;101780.31;5557253;32;34540;-85
2022/03/17 06:42:11;;;;;;;33.13;22.27;;;;;;;7.04;57.63;101786.94;5557407;32;34415;-86
2022/03/17 06:45:14;;;;;;;34.60;23.05;;;;;;;6.36;60.17;101791.16;5558103;32;34065;-85
2022/03/17 06:48:18;;;;;;;35.08;23.20;;;;;;;6.40;60.36;101793.75;5562594;32;33982;-85
2022/03/17 06:51:20;;;;;;;37.90;24.02;;;;;;;6.32;61.26;101795.56;5575747;32;35143;-85
2022/03/17 06:54:23;;;;;;;36.70;24.17;;;;;;;7.98;56.15;101800.56;5567339;32;34072;-86
2022/03/17 06:57:27;;;;;;;39.47;25.60;;;;;;;8.53;54.08;101803.19;5572824;32;33696;-85
2022/03/17 07:00:30;;;;;;;38.53;24.85;;;;;;;10.06;50.63;101802.63;5563278;32;35202;-85
2022/03/17 07:03:32;;;;;;;36.95;24.77;;;;;;;10.92;47.15;101810.13;5562283;32;34237;-86
2022/03/17 07:06:36;;;;;;;37.92;24.98;;;;;;;11.97;44.51;101809.66;5558719;32;33887;-85
2022/03/17 07:09:38;;;;;;;39.92;26.05;;;;;;;12.36;41.76;101806.63;5547916;32;33849;-86
2022/03/17 07:12:42;;;;;;;38.63;25.60;;;;;;;12.58;41.50;101810.31;5542776;32;34071;-86
2022/03/17 07:15:44;;;;;;;37.72;26.42;;;;;;;12.46;40.02;101807.16;5539519;32;34764;-86
2022/03/17 07:18:49;;;;;;;38.45;25.30;;;;;;;12.74;39.37;101808.88;5556874;32;33810;-86
2022/03/17 07:21:53;;;;;;;33.63;24.40;;;;;;;13.66;38.90;101816.13;5556309;32;34076;-86
2022/03/17 07:24:56;;;;;;;40.20;25.77;;;;;;;14.40;36.07;101808.66;5555845;32;34047;-86
2022/03/17 07:27:58;;;;;;;37.25;25.45;;;;;;;13.67;36.27;101807.19;5559412;32;34671;-86
2022/03/17 07:31:01;;;;;;;38.42;26.55;;;;;;;12.38;39.00;101806.56;5558553;32;33720;-86
2022/03/17 07:34:05;;;;;;;38.42;27.15;;;;;;;12.43;40.03;101806.41;5556131;32;34334;-85
2022/03/17 07:37:08;;;;;;;36.85;26.35;;;;;;;14.14;37.01;101800.81;5565858;32;34160;-84
2022/03/17 07:40:12;;;;;;;39.40;27.20;;;;;;;14.32;36.24;101811.66;5548448;32;35151;-86
2022/03/17 07:43:15;;;;;;;37.92;27.13;;;;;;;14.68;35.14;101808.31;5537276;32;33772;-86
2022/03/17 07:46:19;;;;;;;40.25;27.52;;;;;;;14.31;36.50;101809.94;5541947;32;33737;-86
2022/03/17 07:49:26;;;;;;;42.08;27.30;;;;;;;15.47;35.27;101801.22;5536232;32;32145;-87
2022/03/17 07:52:29;;;;;;;34.25;25.75;;;;;;;17.45;31.74;101798.31;5541310;32;34705;-86
2022/03/17 07:55:33;;;;;;;36.83;26.10;;;;;;;14.90;34.82;101806.53;5550952;32;34024;-84
2022/03/17 07:58:37;;;;;;;40.15;27.35;;;;;;;15.06;37.12;101794.22;5537104;32;34545;-84
2022/03/17 08:01:40;;;;;;;35.90;25.27;;;;;;;15.70;33.89;101801.06;5539616;32;36471;-85
2022/03/17 08:04:47;;;;;;;35.00;25.30;;;;;;;16.76;32.77;101802.00;5543041;32;35960;-85
2022/03/17 08:07:50;;;;;;;35.33;26.02;;;;;;;17.63;31.21;101804.44;5542435;32;35526;-85
2022/03/17 08:10:53;;;;;;;35.95;25.12;;;;;;;18.21;29.98;101804.75;5541662;32;34923;-85
2022/03/17 08:13:59;;;;;;;42.22;27.20;;;;;;;17.16;31.00;101801.69;5542656;32;34315;-85
2022/03/17 08:17:02;;;;;;;36.03;26.73;;;;;;;18.80;29.25;101806.56;5552213;32;34303;-85
2022/03/17 08:20:06;;;;;;;40.65;26.67;;;;;;;18.74;28.34;101804.25;5555904;32;34924;-85
2022/03/17 08:23:15;;;;;;;37.35;26.12;;;;;;;18.70;28.40;101802.69;5554724;32;35304;-84
2022/03/17 08:26:18;;;;;;;36.83;25.33;;;;;;;20.27;26.55;101803.44;5554306;32;33580;-86
2022/03/17 08:29:21;;;;;;;35.45;26.23;;;;;;;19.86;28.12;101807.09;5554506;32;34696;-85
2022/03/17 08:32:24;;;;;;;33.58;26.67;;;;;;;21.88;25.08;101811.03;5554600;32;34656;-85
2022/03/17 08:35:27;;;;;;;36.88;26.87;;;;;;;18.41;28.13;101816.97;5559118;32;35307;-89
2022/03/17 08:38:30;;;;;;;37.72;26.50;;;;;;;17.61;29.37;101814.41;5561659;32;34871;-89
2022/03/17 08:41:33;;;;;;;38.83;26.65;;;;;;;17.96;29.49;101818.69;5565333;32;35312;-88
2022/03/17 08:44:36;;;;;;;36.38;26.25;;;;;;;18.05;29.52;101823.53;5566256;32;34038;-89
2022/03/17 08:51:12;;;;;;;39.80;27.75;;;;;;;13.72;36.90;101825.66;5556167;32;33844;-85
2022/03/17 08:54:15;;;;;;;42.38;28.30;;;;;;;14.41;36.98;101832.63;5553477;32;34045;-84
2022/03/17 08:57:18;;;;;;;39.72;28.05;;;;;;;13.74;37.92;101831.81;5552793;32;33741;-85
2022/03/17 09:00:23;;;;;;;41.72;27.15;;;;;;;13.02;38.71;101826.47;5553561;32;34099;-85
2022/03/17 09:03:26;;;;;;;43.60;28.38;;;;;;;12.57;40.23;101830.72;5553921;32;34568;-86
2022/03/17 09:06:30;;;;;;;38.08;27.65;;;;;;;12.33;40.31;101832.47;5554148;32;34523;-85
2022/03/17 09:09:35;;;;;;;40.78;28.55;;;;;;;12.35;40.00;101835.94;5553437;32;33680;-86
2022/03/17 09:12:39;;;;;;;41.30;27.85;;;;;;;12.00;40.71;101837.03;5555122;32;34711;-85
2022/03/17 09:15:42;;;;;;;42.35;27.15;;;;;;;11.76;41.13;101838.66;5553094;32;33665;-85
2022/03/17 09:18:45;;;;;;;42.75;26.62;;;;;;;12.15;41.36;101836.59;5554475;32;35007;-84
2022/03/17 09:21:48;;;;;;;42.80;27.60;;;;;;;12.44;40.82;101835.62;5552612;32;34065;-86
2022/03/17 09:24:51;;;;;;;44.72;27.98;;;;;;;12.78;40.38;101833.59;5554540;32;34772;-87
2022/03/17 09:27:54;;;;;;;40.03;27.92;;;;;;;12.86;39.50;101830.63;5545892;32;35409;-87
2022/03/17 09:30:57;;;;;;;39.10;27.20;;;;;;;13.05;40.23;101844.16;5543241;32;34498;-86
2022/03/17 09:34:00;;;;;;;42.17;27.08;;;;;;;13.33;38.95;101845.81;5554313;32;34685;-85
2022/03/17 09:37:03;;;;;;;46.08;28.87;;;;;;;13.43;39.76;101841.84;5557757;32;35145;-86
2022/03/17 09:40:07;;;;;;;43.20;27.30;;;;;;;13.15;38.94;101837.56;5555792;32;34414;-85
2022/03/17 09:43:21;;;;;;;42.40;28.65;;;;;;;13.43;38.93;101844.50;5551480;32;34018;-85
2022/03/17 09:46:26;;;;;;;42.30;29.55;;;;;;;13.82;38.39;101840.37;5547876;32;34565;-85
2022/03/17 09:49:36;;;;;;;41.78;29.42;;;;;;;12.98;38.14;101839.97;5555210;32;33884;-84
2022/03/17 09:52:41;;;;;;;44.45;29.60;;;;;;;12.55;38.24;101843.25;5540076;32;34282;-85
2022/03/17 09:55:44;;;;;;;39.95;26.83;;;;;;;12.86;39.00;101847.47;5540148;32;34104;-85
2022/03/17 09:58:47;;;;;;;42.10;28.48;;;;;;;13.84;39.35;101843.84;5549188;32;34320;-85
2022/03/17 10:01:51;;;;;;;42.15;28.33;;;;;;;13.73;38.23;101840.75;5546958;32;34035;-86
2022/03/17 10:04:55;;;;;;;43.25;29.63;;;;;;;14.41;36.30;101839.75;5546860;32;34044;-85
2022/03/17 10:07:57;;;;;;;42.42;29.95;;;;;;;14.39;36.77;101837.16;5553200;32;35404;-85
2022/03/17 10:11:00;;;;;;;42.45;29.77;;;;;;;14.07;36.93;101833.19;5547904;32;33542;-85
2022/03/17 10:14:05;;;;;;;47.03;30.75;;;;;;;14.17;36.80;101842.53;5547865;32;34957;-85
2022/03/17 10:17:34;;;;;;;52.38;29.98;;;;;;;13.78;36.58;101844.06;5552549;32;34651;-89
2022/03/17 10:20:37;;;;;;;45.58;30.58;;;;;;;13.71;37.65;101840.81;5549627;32;34275;-86
2022/03/17 10:23:48;;;;;;;43.05;29.73;;;;;;;13.82;37.31;101832.38;5555502;32;34089;-84
2022/03/17 10:26:51;;;;;;;48.57;31.03;;;;;;;14.35;36.15;101832.00;5547378;32;34632;-84
2022/03/17 10:30:03;;;;;;;45.92;30.73;;;;;;;13.42;37.08;101823.25;5545908;32;33607;-85
2022/03/17 10:33:18;;;;;;;46.55;31.20;;;;;;;12.84;38.11;101830.69;5553721;32;34285;-83
2022/03/17 10:36:21;;;;;;;47.92;30.83;;;;;;;13.28;37.43;101832.63;5544351;32;34289;-85
2022/03/17 10:39:34;;;;;;;47.85;31.23;;;;;;;13.36;37.06;101826.16;5536322;32;34714;-85
2022/03/17 10:42:39;;;;;;;42.90;29.67;;;;;;;14.18;36.02;101820.25;5553751;32;33723;-86
2022/03/17 10:45:42;;;;;;;44.13;29.65;;;;;;;14.54;35.81;101819.59;5553712;32;34718;-85
2022/03/17 10:48:53;;;;;;;50.92;30.02;;;;;;;13.46;36.58;101820.44;5553986;32;33747;-86
2022/03/17 10:51:57;;;;;;;42.42;29.58;;;;;;;13.01;37.75;101822.09;5559482;32;33902;-87
2022/03/17 10:55:08;;;;;;;43.67;30.62;;;;;;;12.98;38.15;101824.84;5554563;32;34568;-86
2022/03/17 10:58:15;;;;;;;45.25;29.65;;;;;;;12.09;39.78;101827.91;5555988;32;33971;-87
2022/03/17 11:01:22;;;;;;;41.53;29.52;;;;;;;12.90;38.50;101826.94;5554890;32;34200;-87
2022/03/17 11:04:29;;;;;;;45.58;30.30;;;;;;;12.89;38.11;101831.41;5552781;32;33915;-86
2022/03/17 11:07:33;;;;;;;43.17;28.83;;;;;;;12.87;38.26;101824.41;5558087;32;34218;-86
2022/03/17 11:10:38;;;;;;;44.33;29.20;;;;;;;13.27;38.32;101835.38;5556405;32;33808;-85
2022/03/17 11:13:42;;;;;;;42.22;26.65;;;;;;;13.50;37.13;101834.50;5553123;32;33829;-87
2022/03/17 11:16:54;;;;;;;46.67;28.65;;;;;;;13.90;37.03;101840.06;5539795;32;34256;-85
2022/03/17 11:20:08;;;;;;;41.50;28.17;;;;;;;13.47;37.10;101845.28;5536709;32;34453;-90
2022/03/17 11:23:20;;;;;;;38.90;27.45;;;;;;;12.81;38.37;101841.44;5546556;32;33799;-87
2022/03/17 11:26:29;;;;;;;45.20;27.48;;;;;;;13.06;38.16;101845.88;5555844;32;35219;-85
2022/03/17 11:29:37;;;;;;;41.00;27.60;;;;;;;12.70;38.01;101846.28;5554276;32;33805;-87
2022/03/17 11:32:55;;;;;;;45.20;28.58;;;;;;;11.99;38.64;101837.97;5555096;32;33616;-85
2022/03/17 11:36:11;;;;;;;42.55;27.95;;;;;;;12.06;39.55;101843.97;5542116;32;34142;-86
2022/03/17 11:39:18;;;;;;;42.17;28.87;;;;;;;11.85;40.02;101848.16;5554855;32;34688;-87
2022/03/17 11:42:34;;;;;;;42.75;27.80;;;;;;;11.68;40.33;101852.19;5556121;32;33973;-86
2022/03/17 11:45:40;;;;;;;42.03;26.83;;;;;;;11.77;39.77;101851.03;5563496;32;34226;-86
2022/03/17 11:48:45;;;;;;;42.92;27.67;;;;;;;12.14;39.48;101851.69;5556498;32;35223;-85
2022/03/17 11:51:59;;;;;;;47.80;27.27;;;;;;;12.17;39.88;101848.06;5540714;32;34151;-85
2022/03/17 11:55:30;;;;;;;45.05;27.40;;;;;;;12.06;39.10;101843.09;5542947;32;35059;-86
2022/03/17 11:58:40;;;;;;;40.40;26.48;;;;;;;12.04;42.43;101845.81;5542081;32;34799;-85
2022/03/17 12:01:46;;;;;;;43.33;26.77;;;;;;;12.14;38.59;101843.72;5551625;32;36056;-88
2022/03/17 12:04:51;;;;;;;39.45;26.70;;;;;;;12.48;38.19;101842.56;5561825;32;34952;-90
2022/03/17 12:07:59;;;;;;;37.80;27.15;;;;;;;12.97;37.29;101849.75;5560605;32;34851;-86
2022/03/17 12:11:06;;;;;;;37.70;26.45;;;;;;;12.35;38.22;101850.13;5534391;32;34131;-86
2022/03/17 12:14:14;;;;;;;38.92;27.00;;;;;;;12.19;38.95;101843.56;5553465;32;34636;-86
2022/03/17 12:17:26;;;;;;;42.25;27.60;;;;;;;11.99;38.55;101842.41;5551108;32;34459;-85
2022/03/17 12:20:30;;;;;;;42.45;26.50;;;;;;;11.76;38.76;101846.66;5545112;32;34107;-85
2022/03/17 12:23:49;;;;;;;40.58;25.67;;;;;;;11.79;39.02;101835.03;5523513;32;34677;-86
2022/03/17 12:27:03;;;;;;;40.55;27.20;;;;;;;11.90;39.36;101837.34;5545194;32;33890;-85
2022/03/17 12:30:06;;;;;;;41.60;27.70;;;;;;;11.96;39.28;101840.69;5559889;32;34659;-86
2022/03/17 12:33:11;;;;;;;42.45;26.42;;;;;;;11.90;38.54;101838.25;5564859;32;34982;-86
2022/03/17 12:36:15;;;;;;;38.10;26.65;;;;;;;11.79;38.51;101833.28;5562746;32;34314;-86
2022/03/17 12:39:26;;;;;;;40.78;27.30;;;;;;;11.68;39.62;101835.38;5553094;32;34724;-86
2022/03/17 12:42:31;;;;;;;39.42;25.35;;;;;;;11.73;39.41;101831.66;5551370;32;35525;-86
2022/03/17 12:45:36;;;;;;;40.00;25.58;;;;;;;11.82;39.46;101841.13;5553109;32;34175;-87
2022/03/17 12:48:40;;;;;;;41.37;27.73;;;;;;;11.80;39.61;101839.44;5548244;32;34637;-85
2022/03/17 12:51:42;;;;;;;40.38;27.75;;;;;;;11.91;39.93;101845.28;5553866;32;33683;-86
2022/03/17 12:54:46;;;;;;;41.55;27.05;;;;;;;11.99;39.35;101845.94;5554973;32;34727;-86
2022/03/17 12:57:49;;;;;;;42.38;27.02;;;;;;;11.98;39.63;101838.84;5554091;32;34172;-86
2022/03/17 13:00:53;;;;;;;43.75;28.35;;;;;;;11.99;39.52;101837.97;5549961;32;34162;-86
2022/03/17 13:04:04;;;;;;;42.13;28.67;;;;;;;11.48;40.49;101836.00;5556343;32;34175;-87
2022/03/17 13:07:07;;;;;;;41.05;27.62;;;;;;;11.75;40.10;101844.91;5557086;32;34024;-87
2022/03/17 13:10:10;;;;;;;42.10;27.25;;;;;;;11.47;39.83;101845.78;5556264;32;36243;-87
2022/03/17 13:16:38;;;;;;;43.75;27.10;;;;;;;11.62;40.88;101846.22;5553711;32;34609;-91
2022/03/17 13:19:51;;;;;;;41.53;27.55;;;;;;;11.57;40.58;101841.91;5554668;32;33957;-87
2022/03/17 13:23:00;;;;;;;41.75;27.67;;;;;;;11.67;40.60;101842.47;5553980;32;34304;-87
2022/03/17 13:26:03;;;;;;;39.38;26.87;;;;;;;11.28;41.50;101842.78;5554656;32;34508;-87
2022/03/17 13:29:07;;;;;;;38.80;25.50;;;;;;;11.56;41.27;101834.84;5553605;32;33684;-87
2022/03/17 13:32:17;;;;;;;42.20;26.10;;;;;;;11.62;40.71;101840.91;5554792;32;34758;-87
2022/03/17 13:35:19;;;;;;;41.47;26.42;;;;;;;11.71;40.39;101846.78;5556242;32;34300;-86
2022/03/17 13:38:39;;;;;;;37.53;25.42;;;;;;;11.64;40.60;101841.69;5556611;32;33697;-85
2022/03/17 13:41:56;;;;;;;34.70;24.17;;;;;;;11.70;40.45;101838.84;5554516;32;34480;-86
2022/03/17 13:45:00;;;;;;;34.60;23.95;;;;;;;11.84;39.65;101841.09;5557427;32;33889;-86
2022/03/17 13:48:26;;;;;;;36.10;25.23;;;;;;;11.58;40.28;101837.47;5557442;32;34095;-86
2022/03/17 13:51:37;;;;;;;38.50;25.45;;;;;;;11.48;40.93;101836.00;5557558;32;34708;-86
2022/03/17 13:54:41;;;;;;;35.85;24.42;;;;;;;11.42;41.61;101835.25;5558177;32;33720;-86
2022/03/17 13:57:44;;;;;;;43.80;25.77;;;;;;;11.27;42.10;101843.69;5556736;32;33826;-87
2022/03/17 14:00:50;;;;;;;38.80;25.77;;;;;;;11.47;42.28;101832.47;5557936;32;34726;-87
2022/03/17 14:03:57;;;;;;;39.30;25.20;;;;;;;11.61;41.72;101841.81;5553465;32;33799;-87
2022/03/17 14:07:01;;;;;;;36.78;24.27;;;;;;;11.60;41.71;101840.94;5551139;32;34428;-87
2022/03/17 14:10:04;;;;;;;37.25;24.37;;;;;;;11.33;42.34;101833.75;5539673;32;33995;-86
2022/03/17 14:13:07;;;;;;;34.95;24.50;;;;;;;11.07;42.73;101842.50;5555792;32;34319;-86
2022/03/17 14:16:12;;;;;;;37.08;24.35;;;;;;;11.23;42.70;101845.56;5545155;32;34280;-86
2022/03/17 14:19:16;;;;;;;35.55;23.45;;;;;;;11.22;42.82;101842.94;5561862;32;35226;-91
2022/03/17 14:25:40;;;;;;;35.10;23.17;;;;;;;11.26;41.59;101844.63;5537541;32;35197;-87
2022/03/17 14:28:43;;;;;;;34.22;24.17;;;;;;;11.31;41.59;101845.31;5535775;32;34655;-86
2022/03/17 14:31:47;;;;;;;36.10;24.58;;;;;;;11.41;41.92;101840.63;5536514;32;34379;-88
2022/03/17 14:34:51;;;;;;;37.88;23.75;;;;;;;11.00;43.11;101841.78;5552563;32;35990;-85
2022/03/17 14:37:54;;;;;;;36.85;24.42;;;;;;;10.83;43.73;101836.06;5541077;32;33969;-86
2022/03/17 14:40:57;;;;;;;37.03;24.45;;;;;;;10.93;43.66;101834.91;5541607;32;33948;-86
2022/03/17 14:44:01;;;;;;;37.00;23.70;;;;;;;11.02;43.81;101831.97;5538305;32;34143;-86
2022/03/17 14:47:04;;;;;;;36.17;24.45;;;;;;;11.19;44.11;101831.50;5554569;32;33959;-85
2022/03/17 14:50:07;;;;;;;37.85;24.50;;;;;;;11.02;44.59;101826.66;5551372;32;34074;-86
2022/03/17 14:53:20;;;;;;;37.35;23.92;;;;;;;10.77;45.40;101835.31;5538748;32;34113;-86
2022/03/17 14:56:28;;;;;;;35.75;24.33;;;;;;;10.76;46.00;101838.88;5536715;32;34569;-85
2022/03/17 14:59:32;;;;;;;36.13;24.02;;;;;;;10.81;47.12;101838.75;5542660;32;33780;-85
2022/03/17 15:02:35;;;;;;;37.00;23.38;;;;;;;10.99;46.93;101845.34;5535768;32;33661;-85
2022/03/17 15:05:39;;;;;;;32.42;23.35;;;;;;;10.93;47.60;101845.53;5554964;32;34271;-87
2022/03/17 15:08:43;;;;;;;37.20;23.58;;;;;;;11.04;48.62;101842.56;5547523;32;33651;-86
2022/03/17 15:11:46;;;;;;;36.45;23.40;;;;;;;10.82;49.26;101855.56;5540357;32;34040;-86
2022/03/17 15:14:49;;;;;;;32.17;22.17;;;;;;;10.83;48.01;101849.34;5546469;32;34176;-85
2022/03/17 15:17:52;;;;;;;31.02;22.13;;;;;;;10.73;48.09;101846.06;5551783;32;33967;-85
2022/03/17 15:20:55;;;;;;;35.30;23.35;;;;;;;10.57;49.28;101853.56;5541568;32;33755;-85
2022/03/17 15:23:59;;;;;;;30.40;21.80;;;;;;;10.45;49.26;101866.22;5547157;32;35087;-85
2022/03/17 15:30:23;;;;;;;31.15;21.87;;;;;;;10.31;51.38;101863.87;5550657;32;34719;-85
2022/03/17 15:33:26;;;;;;;31.15;21.15;;;;;;;10.21;51.86;101872.97;5535465;32;34167;-85
2022/03/17 15:36:29;;;;;;;33.70;22.60;;;;;;;10.24;52.18;101870.25;5534704;32;34314;-84
2022/03/17 15:39:32;;;;;;;35.70;23.85;;;;;;;10.09;55.05;101876.78;5535985;32;34925;-84
2022/03/17 15:42:36;;;;;;;39.70;23.62;;;;;;;9.89;58.37;101875.47;5542891;32;33793;-85
2022/03/17 15:45:42;;;;;;;33.22;23.35;;;;;;;9.47;61.04;101879.03;5545632;32;35003;-86
2022/03/17 15:48:45;;;;;;;35.28;23.12;;;;;;;9.36;61.92;101886.31;5549368;32;34711;-85
2022/03/17 15:51:48;;;;;;;35.20;23.67;;;;;;;9.33;62.32;101889.03;5556476;32;33918;-85
2022/03/17 15:54:51;;;;;;;37.58;23.87;;;;;;;9.17;63.31;101889.34;5554717;32;34802;-90
2022/03/17 15:57:54;;;;;;;35.75;23.52;;;;;;;9.16;63.26;101899.03;5555364;32;34112;-90
2022/03/17 16:01:00;;;;;;;35.75;23.40;;;;;;;9.14;63.28;101906.16;5554338;32;34519;-89
2022/03/17 16:04:04;;;;;;;36.00;23.80;;;;;;;9.07;63.61;101911.59;5554141;32;34004;-85
2022/03/17 16:07:07;;;;;;;38.88;24.17;;;;;;;9.20;62.95;101907.81;5554263;32;33946;-85
2022/03/17 16:16:58;;;;;;;36.45;23.87;;;;;;;8.63;65.50;101926.47;5545952;32;33869;-85
2022/03/17 16:20:01;;;;;;;39.17;23.52;;;;;;;8.66;65.59;101928.19;5543309;32;34098;-85
2022/03/17 16:23:04;;;;;;;34.08;23.08;;;;;;;8.61;65.63;101933.53;5535329;32;34223;-85
2022/03/17 16:26:07;;;;;;;34.13;23.83;;;;;;;8.61;65.54;101938.84;5535748;32;34583;-84
2022/03/17 16:29:10;;;;;;;38.72;24.27;;;;;;;8.44;66.19;101938.19;5535692;32;34091;-84
2022/03/17 16:32:14;;;;;;;38.78;24.70;;;;;;;8.38;66.16;101940.94;5542551;32;33844;-84
2022/03/17 16:35:17;;;;;;;36.03;24.63;;;;;;;8.48;66.10;101943.44;5540247;32;34200;-85
